createdAt,value
2019-03-18T00:01:35.327Z,99624.52
2019-03-18T00:06:38.559Z,99639.78
2019-03-18T00:11:41.516Z,99635.87
2019-03-18T00:16:44.709Z,99643.37
2019-03-18T00:21:47.245Z,99641.27
2019-03-18T00:26:50.935Z,99640.43
2019-03-18T00:31:54.498Z,99647.66
2019-03-18T00:36:57.759Z,99667.65
2019-03-18T00:42:00.584Z,99643.80
2019-03-18T00:47:03.838Z,99647.61
2019-03-18T00:52:07.038Z,99652.39
2019-03-18T00:57:10.577Z,99656.73
2019-03-18T01:02:13.753Z,99662.23
2019-03-18T01:07:17.333Z,99659.06
2019-03-18T01:12:20.181Z,99653.41
2019-03-18T01:17:23.956Z,99657.21
2019-03-18T01:22:27.601Z,99666.73
2019-03-18T01:27:31.099Z,99668.67
2019-03-18T01:32:34.358Z,99657.06
2019-03-18T01:37:37.874Z,99656.13
2019-03-18T01:42:41.579Z,99658.95
2019-03-18T01:47:44.798Z,99652.55
2019-03-18T01:52:48.312Z,99654.83
2019-03-18T01:57:50.851Z,99665.48
2019-03-18T02:02:52.994Z,99680.08
2019-03-18T02:07:55.861Z,99671.67
2019-03-18T02:12:58.692Z,99649.54
2019-03-18T02:18:01.216Z,99666.88
2019-03-18T02:23:03.989Z,99677.80
2019-03-18T02:28:09.079Z,99671.07
2019-03-18T02:33:12.562Z,99680.14
2019-03-18T02:38:15.360Z,99677.48
2019-03-18T02:43:18.853Z,99681.61
2019-03-18T02:48:22.161Z,99675.36
2019-03-18T02:53:25.102Z,99661.61
2019-03-18T02:58:27.995Z,99681.07
2019-03-18T03:03:31.511Z,99672.15
2019-03-18T03:08:34.826Z,99684.97
2019-03-18T03:13:38.330Z,99692.80
2019-03-18T03:18:41.643Z,99692.53
2019-03-18T03:23:44.848Z,99703.77
2019-03-18T03:28:48.360Z,99693.81
2019-03-18T03:33:51.488Z,99689.73
2019-03-18T03:38:54.401Z,99697.50
2019-03-18T03:43:57.610Z,99707.23
2019-03-18T03:49:00.799Z,99715.09
2019-03-18T03:54:03.724Z,99718.81
2019-03-18T03:59:06.823Z,99732.88
2019-03-18T04:04:10.042Z,99775.44
2019-03-18T04:09:13.552Z,99744.42
2019-03-18T04:14:16.776Z,99735.66
2019-03-18T04:19:19.667Z,99759.48
2019-03-18T04:24:22.533Z,99753.23
2019-03-18T04:29:25.368Z,99735.56
2019-03-18T04:34:28.380Z,99753.01
2019-03-18T04:39:31.799Z,99762.00
2019-03-18T04:44:34.997Z,99768.25
2019-03-18T04:49:38.183Z,99769.44
2019-03-18T04:54:40.666Z,99787.17
2019-03-18T04:59:44.188Z,99780.35
2019-03-18T05:04:46.734Z,99782.39
2019-03-18T05:09:49.614Z,99784.16
2019-03-18T05:14:52.819Z,99797.45
2019-03-18T05:19:55.622Z,99798.09
2019-03-18T05:24:59.129Z,99803.16
2019-03-18T05:30:01.942Z,99804.14
2019-03-18T05:35:05.312Z,99808.89
2019-03-18T05:40:08.213Z,99810.03
2019-03-18T05:45:11.464Z,99813.53
2019-03-18T05:50:14.991Z,99838.84
2019-03-18T05:55:17.571Z,99825.59
2019-03-18T06:00:20.847Z,99836.52
2019-03-18T06:05:24.023Z,99823.49
2019-03-18T06:10:27.213Z,99821.21
2019-03-18T06:15:30.373Z,99841.92
2019-03-18T06:20:33.815Z,99841.06
2019-03-18T06:25:37.054Z,99841.53
2019-03-18T06:30:40.267Z,99850.67
2019-03-18T06:35:43.467Z,99873.25
2019-03-18T06:40:46.957Z,99904.44
2019-03-18T06:45:50.208Z,99896.16
2019-03-18T06:50:53.401Z,99911.61
2019-03-18T06:55:56.292Z,99904.78
2019-03-18T07:00:59.174Z,99919.14
2019-03-18T07:06:02.689Z,99922.45
2019-03-18T07:11:06.227Z,99933.44
2019-03-18T07:16:09.151Z,99926.80
2019-03-18T07:21:14.612Z,99932.61
2019-03-18T07:26:16.799Z,99930.55
2019-03-18T07:31:19.703Z,99954.50
2019-03-18T07:36:22.595Z,99974.53
2019-03-18T07:41:25.512Z,99973.68
2019-03-18T07:46:28.709Z,99970.19
2019-03-18T07:51:32.210Z,99981.84
2019-03-18T07:56:35.373Z,99982.52
2019-03-18T08:01:38.339Z,99998.75
2019-03-18T08:06:41.243Z,100002.84
2019-03-18T08:11:44.479Z,100011.44
2019-03-18T08:16:47.630Z,100015.84
2019-03-18T08:21:50.582Z,100024.86
2019-03-18T08:26:54.078Z,100020.30
2019-03-18T08:31:57.293Z,100054.94
2019-03-18T08:37:00.534Z,100025.16
2019-03-18T08:42:03.381Z,100053.37
2019-03-18T08:47:06.639Z,100062.56
2019-03-18T08:52:09.533Z,100068.27
2019-03-18T08:57:12.421Z,100079.22
2019-03-18T09:02:15.406Z,100097.25
2019-03-18T09:07:18.982Z,100102.20
2019-03-18T09:12:22.577Z,100098.00
2019-03-18T09:17:25.470Z,100116.73
2019-03-18T09:22:28.430Z,100110.11
2019-03-18T09:27:31.685Z,100132.49
2019-03-18T09:32:34.894Z,100119.69
2019-03-18T09:37:37.905Z,100127.91
2019-03-18T09:42:41.625Z,100118.88
2019-03-18T09:47:44.897Z,100123.09
2019-03-18T09:52:48.149Z,100149.17
2019-03-18T09:57:51.659Z,100148.37
2019-03-18T10:02:55.004Z,100145.08
2019-03-18T10:07:57.872Z,100150.48
2019-03-18T10:13:01.049Z,100159.25
2019-03-18T10:18:04.317Z,100151.97
2019-03-18T10:23:07.515Z,100144.59
2019-03-18T10:28:10.408Z,100162.61
2019-03-18T10:33:13.309Z,100210.42
2019-03-18T10:38:16.534Z,100236.58
2019-03-18T10:43:20.093Z,100247.72
2019-03-18T10:48:23.356Z,100267.05
2019-03-18T10:53:26.656Z,100270.30
2019-03-18T10:58:29.197Z,100293.83
2019-03-18T11:03:32.108Z,100307.00
2019-03-18T11:08:35.345Z,100306.49
2019-03-18T11:13:38.878Z,100286.92
2019-03-18T11:18:42.093Z,100327.25
2019-03-18T11:23:45.276Z,100334.00
2019-03-18T11:28:48.837Z,100342.05
2019-03-18T11:33:52.133Z,100369.06
2019-03-18T11:38:55.329Z,100358.06
2019-03-18T11:43:58.860Z,100314.42
2019-03-18T11:49:02.057Z,100350.62
2019-03-18T11:54:05.546Z,100349.55
2019-03-18T11:59:08.798Z,100349.13
2019-03-18T12:04:12.505Z,100357.84
2019-03-18T12:09:15.110Z,100378.95
2019-03-18T12:14:18.150Z,100356.44
2019-03-18T12:19:23.130Z,100372.02
2019-03-18T12:24:26.567Z,100391.30
2019-03-18T12:29:29.589Z,100406.09
2019-03-18T12:34:32.765Z,100397.23
2019-03-18T12:39:36.335Z,100397.03
2019-03-18T12:44:39.884Z,100411.05
2019-03-18T12:49:42.835Z,100417.97
2019-03-18T12:54:46.425Z,100450.17
2019-03-18T12:59:49.324Z,100454.14
2019-03-18T13:04:52.285Z,100436.70
2019-03-18T13:09:55.177Z,100461.69
2019-03-18T13:14:58.504Z,100468.55
2019-03-18T13:20:01.799Z,100471.94
2019-03-18T13:25:05.983Z,100490.08
2019-03-18T13:30:11.353Z,100510.33
2019-03-18T13:35:14.611Z,100508.97
2019-03-18T13:40:18.006Z,100521.25
2019-03-18T13:45:21.191Z,100538.14
2019-03-18T13:50:24.352Z,100532.38
2019-03-18T13:55:27.901Z,100526.13
2019-03-18T14:00:31.309Z,100526.98
2019-03-18T14:05:35.193Z,100553.80
2019-03-18T14:10:38.091Z,100539.77
2019-03-18T14:15:41.289Z,100549.14
2019-03-18T14:20:44.518Z,100581.56
2019-03-18T14:25:48.044Z,100604.28
2019-03-18T14:30:50.948Z,100589.89
2019-03-18T14:36:00.898Z,100604.26
2019-03-18T14:41:04.429Z,100591.80
2019-03-18T14:46:06.962Z,100618.31
2019-03-18T14:51:10.240Z,100611.27
2019-03-18T14:56:14.367Z,100607.73
2019-03-18T15:01:17.647Z,100622.84
2019-03-18T15:06:20.184Z,100649.38
2019-03-18T15:11:23.429Z,100645.60
2019-03-18T15:16:25.932Z,100652.20
2019-03-18T15:21:29.495Z,100661.17
2019-03-18T15:26:32.762Z,100675.59
2019-03-18T15:31:35.616Z,100703.77
2019-03-18T15:36:38.863Z,100731.97
2019-03-18T15:41:41.763Z,100749.45
2019-03-18T15:46:44.984Z,100743.17
2019-03-18T15:51:48.286Z,100759.88
2019-03-18T15:56:51.578Z,100750.20
2019-03-18T16:01:54.806Z,100767.95
2019-03-18T16:06:58.083Z,100786.72
2019-03-18T16:12:01.097Z,100771.61
2019-03-18T16:17:04.317Z,100794.45
2019-03-18T16:22:07.711Z,100802.89
2019-03-18T16:27:11.001Z,100799.02
2019-03-18T16:32:14.195Z,100820.61
2019-03-18T16:37:17.207Z,100823.67
2019-03-18T16:42:20.740Z,100839.31
2019-03-18T16:47:23.256Z,100838.50
2019-03-18T16:52:35.164Z,100849.56
2019-03-18T16:57:31.404Z,100867.66
2019-03-18T17:02:36.729Z,100868.94
2019-03-18T17:07:41.113Z,100893.78
2019-03-18T17:12:44.079Z,100895.78
2019-03-18T17:17:47.476Z,100908.72
2019-03-18T17:22:51.058Z,100916.34
2019-03-18T17:27:54.266Z,100919.15
2019-03-18T17:32:57.474Z,100913.59
2019-03-18T17:38:00.700Z,100941.81
2019-03-18T17:43:03.965Z,100944.26
2019-03-18T17:48:07.218Z,100949.95
2019-03-18T17:53:10.697Z,100959.56
2019-03-18T17:58:13.907Z,100975.55
2019-03-18T18:03:18.245Z,100990.88
2019-03-18T18:08:21.920Z,101006.70
2019-03-18T18:13:25.211Z,101012.25
2019-03-18T18:18:28.095Z,101032.39
2019-03-18T18:23:32.214Z,101035.28
2019-03-18T18:28:35.455Z,101038.28
2019-03-18T18:33:40.906Z,101052.34
2019-03-18T18:38:44.458Z,101065.99
2019-03-18T18:43:48.171Z,101078.80
2019-03-18T18:48:51.563Z,101092.27
2019-03-18T18:53:54.918Z,101101.78
2019-03-18T18:58:57.567Z,101124.89
2019-03-18T19:04:01.232Z,101131.87
2019-03-18T19:09:06.574Z,101142.48
2019-03-18T19:14:10.589Z,101153.61
2019-03-18T19:19:17.896Z,101167.03
2019-03-18T19:24:25.337Z,101168.11
2019-03-18T19:29:31.733Z,101170.68
2019-03-18T19:34:40.436Z,101164.55
2019-03-18T19:39:49.536Z,101176.54
2019-03-18T19:45:03.579Z,101173.27
2019-03-18T19:50:09.885Z,101186.03
2019-03-18T19:55:17.823Z,101192.69
2019-03-18T20:00:25.944Z,101210.67
2019-03-18T20:05:36.815Z,101215.58
2019-03-18T20:10:44.937Z,101217.68
2019-03-18T20:15:52.546Z,101231.44
2019-03-18T20:20:59.710Z,101231.53
2019-03-18T20:26:08.551Z,101237.88
2019-03-18T20:31:25.366Z,101251.47
2019-03-18T20:36:26.413Z,101255.28
2019-03-18T20:41:34.273Z,101256.80
2019-03-18T20:46:40.930Z,101262.08
2019-03-18T20:51:47.294Z,101273.05
2019-03-18T20:56:53.709Z,101274.58
2019-03-18T21:01:57.811Z,101297.47
2019-03-18T21:07:01.313Z,101302.33
2019-03-18T21:12:04.892Z,101311.73
2019-03-18T21:17:08.315Z,101312.67
2019-03-18T21:22:12.101Z,101324.77
2019-03-18T21:27:15.316Z,101333.28
2019-03-18T21:32:18.619Z,101343.17
2019-03-18T21:37:21.896Z,101347.81
2019-03-18T21:42:25.458Z,101347.38
2019-03-18T21:47:29.040Z,101348.30
2019-03-18T21:52:32.538Z,101356.96
2019-03-18T21:57:35.510Z,101363.59
2019-03-18T22:02:38.820Z,101378.45
2019-03-18T22:07:42.080Z,101388.02
2019-03-18T22:12:46.291Z,101383.67
2019-03-18T22:17:49.325Z,101388.68
2019-03-18T22:22:53.798Z,101385.87
2019-03-18T22:27:57.308Z,101394.59
2019-03-18T22:33:01.991Z,101399.22
2019-03-18T22:38:05.390Z,101401.49
2019-03-18T22:43:08.279Z,101406.73
2019-03-18T22:48:11.937Z,101373.66
2019-03-18T22:53:15.513Z,101397.41
2019-03-18T22:58:19.486Z,101410.72
2019-03-18T23:03:23.165Z,101417.30
2019-03-18T23:08:26.881Z,101423.22
2019-03-18T23:13:30.395Z,101429.26
2019-03-18T23:18:33.284Z,101444.44
2019-03-18T23:23:36.872Z,101447.77
2019-03-18T23:28:40.545Z,101453.63
2019-03-18T23:33:44.117Z,101461.79
2019-03-18T23:38:47.066Z,101461.15
2019-03-18T23:43:49.554Z,101476.15
2019-03-18T23:48:52.697Z,101482.05
2019-03-18T23:53:56.276Z,101485.27
2019-03-18T23:58:59.745Z,101493.22
